createdAt,value
2023-05-23T00:02:08.199Z,16.40
2023-05-23T00:04:36.945Z,16.40
2023-05-23T00:07:04.615Z,16.40
2023-05-23T00:09:31.809Z,16.40
2023-05-23T00:11:59.352Z,16.20
2023-05-23T00:14:26.901Z,16.10
2023-05-23T00:16:55.286Z,16.00
2023-05-23T00:19:22.515Z,16.00
2023-05-23T00:21:49.843Z,16.10
2023-05-23T00:24:20.600Z,16.10
2023-05-23T00:26:48.187Z,16.00
2023-05-23T00:29:16.836Z,15.90
2023-05-23T00:31:48.220Z,16.00
2023-05-23T00:34:17.978Z,15.90
2023-05-23T00:36:47.846Z,15.80
2023-05-23T00:39:20.239Z,15.80
2023-05-23T00:41:51.899Z,15.70
2023-05-23T00:44:21.371Z,15.70
2023-05-23T00:46:53.778Z,15.80
2023-05-23T00:49:22.262Z,15.80
2023-05-23T00:51:50.155Z,15.90
2023-05-23T00:54:27.353Z,15.80
2023-05-23T00:56:55.502Z,15.80
2023-05-23T00:59:24.792Z,15.70
2023-05-23T01:01:54.752Z,15.60
2023-05-23T01:04:26.357Z,15.50
2023-05-23T01:06:56.001Z,15.50
2023-05-23T01:09:25.587Z,15.50
2023-05-23T01:12:24.830Z,15.50
2023-05-23T01:15:13.351Z,15.40
2023-05-23T01:18:18.184Z,15.10
2023-05-23T01:20:52.524Z,15.00
2023-05-23T01:23:36.306Z,15.00
2023-05-23T01:26:35.112Z,15.10
2023-05-23T01:29:25.592Z,15.00
2023-05-23T01:31:58.408Z,15.10
2023-05-23T01:34:25.588Z,15.00
2023-05-23T01:36:56.540Z,15.00
2023-05-23T01:39:24.263Z,15.00
2023-05-23T01:41:52.952Z,15.00
2023-05-23T01:44:21.346Z,14.90
2023-05-23T01:46:48.933Z,14.80
2023-05-23T01:49:18.329Z,14.90
2023-05-23T01:51:46.507Z,14.90
2023-05-23T01:54:17.024Z,14.80
2023-05-23T01:56:45.074Z,14.80
2023-05-23T01:59:12.807Z,14.80
2023-05-23T02:01:40.938Z,14.80
2023-05-23T02:04:08.066Z,14.80
2023-05-23T02:06:35.219Z,14.90
2023-05-23T02:09:02.938Z,14.80
2023-05-23T02:11:31.943Z,14.80
2023-05-23T02:13:59.017Z,14.70
2023-05-23T02:16:26.496Z,14.70
2023-05-23T02:18:56.306Z,14.70
2023-05-23T02:21:24.563Z,14.70
2023-05-23T02:23:51.592Z,14.60
2023-05-23T02:26:18.699Z,14.60
2023-05-23T02:28:45.842Z,14.70
2023-05-23T02:31:17.318Z,14.80
2023-05-23T02:33:44.642Z,14.70
2023-05-23T02:36:11.739Z,14.70
2023-05-23T02:38:38.842Z,14.70
2023-05-23T02:41:05.929Z,14.70
2023-05-23T02:43:33.773Z,14.80
2023-05-23T02:46:02.013Z,14.80
2023-05-23T02:48:29.186Z,14.90
2023-05-23T02:50:56.564Z,15.00
2023-05-23T02:53:24.195Z,15.10
2023-05-23T02:55:51.373Z,15.20
2023-05-23T02:58:19.200Z,15.20
2023-05-23T03:00:46.252Z,15.10
2023-05-23T03:03:13.568Z,15.10
2023-05-23T03:05:40.939Z,14.90
2023-05-23T03:08:08.914Z,15.00
2023-05-23T03:10:36.301Z,15.00
2023-05-23T03:13:03.707Z,15.00
2023-05-23T03:15:30.842Z,14.90
2023-05-23T03:17:58.211Z,14.90
2023-05-23T03:20:25.364Z,14.90
2023-05-23T03:22:52.834Z,14.90
2023-05-23T03:25:19.879Z,15.00
2023-05-23T03:27:47.888Z,14.90
2023-05-23T03:30:15.057Z,14.90
2023-05-23T03:32:42.442Z,14.90
2023-05-23T03:35:10.196Z,14.80
2023-05-23T03:37:37.544Z,14.70
2023-05-23T03:40:05.318Z,14.70
2023-05-23T03:42:32.520Z,14.60
2023-05-23T03:44:59.776Z,14.40
2023-05-23T03:47:26.937Z,14.40
2023-05-23T03:49:56.202Z,14.40
2023-05-23T03:52:23.685Z,14.40
2023-05-23T03:54:51.009Z,14.40
2023-05-23T03:57:18.278Z,14.40
2023-05-23T03:59:45.483Z,14.40
2023-05-23T04:02:13.354Z,14.40
2023-05-23T04:04:41.295Z,14.50
2023-05-23T04:07:10.046Z,14.60
2023-05-23T04:09:38.526Z,14.60
2023-05-23T04:12:09.822Z,14.60
2023-05-23T04:14:37.539Z,14.60
2023-05-23T04:17:05.883Z,14.60
2023-05-23T04:19:33.642Z,14.60
2023-05-23T04:22:01.055Z,14.60
2023-05-23T04:24:28.917Z,14.60
2023-05-23T04:26:56.431Z,14.60
2023-05-23T04:29:26.264Z,14.70
2023-05-23T04:31:55.120Z,14.90
2023-05-23T04:34:22.553Z,14.90
2023-05-23T04:36:49.975Z,14.90
2023-05-23T04:39:17.719Z,14.90
2023-05-23T04:42:02.384Z,14.90
2023-05-23T04:44:46.336Z,15.00
2023-05-23T04:47:19.313Z,14.80
2023-05-23T04:50:02.259Z,14.80
2023-05-23T04:52:33.331Z,14.90
2023-05-23T04:55:01.580Z,15.00
2023-05-23T04:57:29.266Z,15.00
2023-05-23T04:59:57.511Z,15.10
2023-05-23T05:02:27.163Z,14.90
2023-05-23T05:04:55.829Z,15.00
2023-05-23T05:07:23.161Z,15.20
2023-05-23T05:09:50.313Z,15.30
2023-05-23T05:12:18.149Z,15.40
2023-05-23T05:14:45.269Z,15.50
2023-05-23T05:17:13.076Z,15.70
2023-05-23T05:19:55.897Z,15.70
2023-05-23T05:22:23.363Z,15.60
2023-05-23T05:24:50.495Z,15.80
2023-05-23T05:27:18.667Z,15.80
2023-05-23T05:29:46.181Z,15.80
2023-05-23T05:32:13.474Z,15.90
2023-05-23T05:34:43.392Z,16.00
2023-05-23T05:37:14.205Z,16.10
2023-05-23T05:39:42.690Z,16.10
2023-05-23T05:42:10.591Z,16.10
2023-05-23T05:44:38.412Z,16.10
2023-05-23T05:47:06.068Z,16.30
2023-05-23T05:49:33.333Z,16.30
2023-05-23T05:52:00.617Z,16.40
2023-05-23T05:54:27.694Z,16.30
2023-05-23T05:56:55.582Z,16.40
2023-05-23T05:59:22.649Z,16.60
2023-05-23T06:01:51.358Z,16.60
2023-05-23T06:04:18.767Z,16.80
2023-05-23T06:06:46.162Z,16.80
2023-05-23T06:09:13.376Z,17.10
2023-05-23T06:11:41.130Z,17.20
2023-05-23T06:14:08.440Z,17.30
2023-05-23T06:16:38.792Z,17.50
2023-05-23T06:19:06.456Z,17.60
2023-05-23T06:21:33.758Z,18.00
2023-05-23T06:24:02.010Z,17.90
2023-05-23T06:26:29.198Z,17.80
2023-05-23T06:28:56.261Z,17.80
2023-05-23T06:31:23.646Z,17.70
2023-05-23T06:33:54.722Z,17.60
2023-05-23T06:36:22.066Z,17.40
2023-05-23T06:38:49.148Z,17.60
2023-05-23T06:41:16.222Z,17.90
2023-05-23T06:43:43.295Z,18.00
2023-05-23T06:46:15.555Z,18.30
2023-05-23T06:48:42.634Z,18.10
2023-05-23T06:51:10.727Z,18.40
2023-05-23T06:53:37.921Z,18.20
2023-05-23T06:56:05.534Z,18.40
2023-05-23T06:58:39.469Z,18.40
2023-05-23T07:01:07.348Z,18.30
2023-05-23T07:03:41.710Z,18.50
2023-05-23T07:06:10.101Z,18.80
2023-05-23T07:08:38.018Z,18.70
2023-05-23T07:11:06.543Z,19.00
2023-05-23T07:13:46.462Z,19.30
2023-05-23T07:16:29.967Z,19.50
2023-05-23T07:19:06.590Z,19.80
2023-05-23T07:21:38.705Z,19.50
2023-05-23T07:24:07.051Z,19.40
2023-05-23T07:26:34.400Z,19.50
2023-05-23T07:29:01.722Z,19.40
2023-05-23T07:31:29.117Z,19.60
2023-05-23T07:33:59.641Z,19.60
2023-05-23T07:36:35.890Z,19.70
2023-05-23T07:39:07.347Z,19.70
2023-05-23T07:41:34.443Z,19.50
2023-05-23T07:44:01.596Z,19.50
2023-05-23T07:46:28.840Z,19.50
2023-05-23T07:48:56.926Z,19.40
2023-05-23T07:51:24.226Z,19.50
2023-05-23T07:53:52.129Z,19.50
2023-05-23T07:56:23.248Z,19.20
2023-05-23T07:58:50.700Z,19.60
2023-05-23T08:01:18.490Z,20.10
2023-05-23T08:04:03.961Z,20.10
2023-05-23T08:07:04.451Z,20.20
2023-05-23T08:09:52.847Z,20.40
2023-05-23T08:12:21.070Z,20.20
2023-05-23T08:14:52.586Z,19.80
2023-05-23T08:17:42.070Z,20.20
2023-05-23T08:20:10.386Z,20.00
2023-05-23T08:22:37.961Z,20.30
2023-05-23T08:25:07.286Z,20.50
2023-05-23T08:27:37.033Z,20.50
2023-05-23T08:30:13.159Z,20.70
2023-05-23T08:32:40.329Z,20.50
2023-05-23T08:35:08.117Z,20.80
2023-05-23T08:37:36.769Z,20.80
2023-05-23T08:40:04.619Z,21.20
2023-05-23T08:42:43.519Z,21.30
2023-05-23T08:45:12.626Z,20.20
2023-05-23T08:47:43.232Z,20.60
2023-05-23T08:50:13.397Z,20.70
2023-05-23T08:52:54.776Z,21.00
2023-05-23T08:55:27.415Z,20.60
2023-05-23T08:57:57.771Z,20.90
2023-05-23T09:00:52.397Z,21.20
2023-05-23T09:03:21.253Z,22.20
2023-05-23T09:06:00.944Z,21.60
2023-05-23T09:08:29.273Z,21.80
2023-05-23T09:10:59.155Z,21.90
2023-05-23T09:13:29.520Z,21.90
2023-05-23T09:16:04.639Z,22.80
2023-05-23T09:18:39.788Z,22.80
2023-05-23T09:21:08.758Z,23.10
2023-05-23T09:23:41.796Z,23.50
2023-05-23T09:26:13.497Z,22.80
2023-05-23T09:28:43.250Z,22.00
2023-05-23T09:31:13.425Z,22.40
2023-05-23T09:33:50.560Z,22.80
2023-05-23T09:36:20.375Z,23.50
2023-05-23T09:38:52.735Z,23.30
2023-05-23T09:41:20.780Z,22.50
2023-05-23T09:43:55.105Z,21.90
2023-05-23T09:46:23.176Z,21.50
2023-05-23T09:48:52.342Z,22.10
2023-05-23T09:51:21.703Z,22.10
2023-05-23T09:53:49.915Z,22.10
2023-05-23T09:56:18.277Z,22.60
2023-05-23T09:58:49.466Z,23.10
2023-05-23T10:01:17.233Z,23.60
2023-05-23T10:03:59.983Z,23.80
2023-05-23T10:06:32.568Z,24.20
2023-05-23T10:09:04.954Z,24.70
2023-05-23T10:12:11.110Z,25.30
2023-05-23T10:14:44.031Z,25.70
2023-05-23T10:17:19.521Z,25.20
2023-05-23T10:20:09.916Z,24.20
2023-05-23T10:22:38.336Z,23.80
2023-05-23T10:25:07.499Z,23.70
2023-05-23T10:27:34.913Z,23.70
2023-05-23T10:30:02.719Z,23.40
2023-05-23T10:32:31.133Z,22.80
2023-05-23T10:35:25.373Z,22.70
2023-05-23T10:38:24.317Z,22.30
2023-05-23T10:41:12.441Z,21.80
2023-05-23T10:43:54.219Z,21.90
2023-05-23T10:46:24.621Z,21.80
2023-05-23T10:48:57.410Z,21.80
2023-05-23T10:51:25.036Z,21.90
2023-05-23T10:53:54.794Z,22.20
2023-05-23T10:56:25.284Z,22.40
2023-05-23T10:58:57.437Z,22.50
2023-05-23T11:01:25.590Z,22.30
2023-05-23T11:03:55.559Z,22.60
2023-05-23T11:06:53.809Z,22.60
2023-05-23T11:09:22.051Z,23.20
2023-05-23T11:12:03.666Z,23.10
2023-05-23T11:14:55.232Z,23.70
2023-05-23T11:17:33.660Z,24.70
2023-05-23T11:25:10.575Z,25.30
2023-05-23T11:27:39.844Z,24.30
2023-05-23T11:30:16.245Z,24.10
2023-05-23T11:32:51.301Z,23.90
2023-05-23T11:35:18.661Z,23.70
2023-05-23T11:37:45.800Z,23.50
2023-05-23T11:40:33.273Z,23.20
2023-05-23T11:43:03.716Z,23.10
2023-05-23T11:45:32.264Z,23.00
2023-05-23T11:48:04.901Z,22.50
2023-05-23T11:50:32.075Z,22.50
2023-05-23T11:53:00.219Z,22.30
2023-05-23T11:55:27.418Z,22.20
2023-05-23T11:57:56.632Z,21.70
2023-05-23T12:00:23.733Z,21.70
2023-05-23T12:02:51.013Z,21.50
2023-05-23T12:05:18.417Z,21.50
2023-05-23T12:07:49.758Z,21.40
2023-05-23T12:10:17.907Z,21.30
2023-05-23T12:12:45.391Z,21.30
2023-05-23T12:15:13.298Z,20.90
2023-05-23T12:17:47.417Z,20.50
2023-05-23T12:20:14.670Z,20.00
2023-05-23T12:22:42.578Z,19.50
2023-05-23T12:25:11.326Z,19.20
2023-05-23T12:27:41.790Z,19.20
2023-05-23T12:30:16.230Z,19.10
2023-05-23T12:32:44.923Z,19.10
2023-05-23T12:35:14.067Z,19.10
2023-05-23T12:37:47.376Z,19.00
2023-05-23T12:40:18.589Z,19.10
2023-05-23T12:42:54.326Z,19.00
2023-05-23T12:45:32.387Z,19.00
2023-05-23T12:47:59.730Z,19.20
2023-05-23T12:50:27.454Z,19.30
2023-05-23T12:52:54.749Z,19.50
2023-05-23T12:55:22.115Z,19.60
2023-05-23T12:57:49.330Z,19.70
2023-05-23T13:00:16.769Z,19.90
2023-05-23T13:02:43.995Z,20.00
2023-05-23T13:05:11.545Z,20.00
2023-05-23T13:07:38.990Z,20.10
2023-05-23T13:10:07.085Z,20.10
2023-05-23T13:12:34.805Z,20.10
2023-05-23T13:15:01.862Z,20.10
2023-05-23T13:17:29.218Z,20.20
2023-05-23T13:19:56.482Z,20.40
2023-05-23T13:22:23.586Z,20.60
2023-05-23T13:24:50.807Z,20.90
2023-05-23T13:27:18.690Z,20.90
2023-05-23T13:29:45.801Z,21.10
2023-05-23T13:32:12.910Z,21.70
2023-05-23T13:34:40.000Z,22.00
2023-05-23T13:37:07.187Z,22.00
2023-05-23T13:39:34.273Z,21.50
2023-05-23T13:42:01.375Z,21.30
2023-05-23T13:44:28.691Z,21.30
2023-05-23T13:47:12.511Z,20.90
2023-05-23T13:49:41.502Z,21.30
2023-05-23T13:52:08.636Z,20.80
2023-05-23T13:54:36.107Z,20.80
2023-05-23T13:57:03.539Z,21.40
2023-05-23T13:59:36.326Z,21.70
2023-05-23T14:02:03.556Z,22.00
2023-05-23T14:04:31.170Z,22.90
2023-05-23T14:06:58.241Z,22.60
2023-05-23T14:09:25.322Z,22.30
2023-05-23T14:11:52.862Z,22.60
2023-05-23T14:14:20.107Z,22.80
2023-05-23T14:16:47.386Z,23.50
2023-05-23T14:19:14.698Z,23.60
2023-05-23T14:21:43.394Z,23.10
2023-05-23T14:24:12.308Z,23.60
2023-05-23T14:51:26.949Z,23.90
2023-05-23T14:54:01.801Z,25.50
2023-05-23T15:40:49.590Z,24.70
2023-05-23T15:43:16.609Z,22.90
2023-05-23T15:45:43.887Z,23.00
2023-05-23T15:48:11.414Z,22.90
2023-05-23T15:50:38.824Z,22.60
2023-05-23T15:53:06.322Z,22.50
2023-05-23T15:55:33.662Z,22.50
2023-05-23T15:58:00.882Z,22.50
2023-05-23T16:00:28.253Z,22.20
2023-05-23T16:02:55.503Z,22.20
2023-05-23T16:05:22.904Z,22.10
2023-05-23T16:07:50.162Z,22.10
2023-05-23T16:10:17.535Z,21.90
2023-05-23T16:12:44.753Z,21.80
2023-05-23T16:15:12.003Z,21.90
2023-05-23T16:17:39.200Z,21.90
2023-05-23T16:20:07.225Z,22.10
2023-05-23T16:22:34.459Z,21.90
2023-05-23T16:25:01.737Z,22.20
2023-05-23T16:27:28.868Z,22.90
2023-05-23T16:29:55.905Z,22.60
2023-05-23T16:32:23.254Z,22.40
2023-05-23T16:34:53.486Z,22.20
2023-05-23T16:37:22.031Z,22.10
2023-05-23T16:39:49.167Z,21.90
2023-05-23T16:42:16.386Z,22.10
2023-05-23T16:44:43.563Z,22.20
2023-05-23T16:47:10.784Z,22.10
2023-05-23T16:49:37.823Z,21.60
2023-05-23T16:52:05.284Z,21.10
2023-05-23T16:54:32.370Z,20.90
2023-05-23T16:57:01.978Z,20.80
2023-05-23T16:59:30.023Z,20.50
2023-05-23T17:01:57.445Z,20.70
2023-05-23T17:04:24.929Z,20.60
2023-05-23T17:06:52.095Z,20.40
2023-05-23T17:09:21.355Z,20.30
2023-05-23T17:11:49.152Z,20.30
2023-05-23T17:14:16.310Z,20.10
2023-05-23T17:16:43.531Z,19.90
2023-05-23T17:19:10.611Z,19.90
2023-05-23T17:21:37.862Z,19.80
2023-05-23T17:24:05.209Z,19.80
2023-05-23T17:26:32.687Z,19.80
2023-05-23T17:28:59.749Z,19.60
2023-05-23T17:31:29.658Z,19.60
2023-05-23T17:33:58.020Z,19.50
2023-05-23T17:36:25.172Z,19.30
2023-05-23T17:38:54.923Z,19.10
2023-05-23T17:41:24.939Z,19.10
2023-05-23T17:43:52.106Z,18.80
2023-05-23T17:46:19.306Z,18.80
2023-05-23T17:48:48.223Z,18.60
2023-05-23T17:51:15.916Z,18.50
2023-05-23T17:53:43.616Z,18.40
2023-05-23T17:56:11.168Z,18.20
2023-05-23T17:58:39.211Z,17.90
2023-05-23T18:01:08.171Z,17.90
2023-05-23T18:03:35.415Z,18.00
2023-05-23T18:06:02.476Z,17.90
2023-05-23T18:08:29.615Z,17.80
2023-05-23T18:10:56.798Z,17.90
2023-05-23T18:13:23.971Z,17.80
2023-05-23T18:15:51.023Z,17.80
2023-05-23T18:18:18.360Z,17.80
2023-05-23T18:20:45.637Z,17.80
2023-05-23T18:23:12.870Z,17.60
2023-05-23T18:25:39.904Z,17.60
2023-05-23T18:28:07.070Z,17.70
2023-05-23T18:30:34.124Z,17.70
2023-05-23T18:33:01.805Z,17.60
2023-05-23T18:35:28.946Z,17.70
2023-05-23T18:37:56.209Z,17.70
2023-05-23T18:40:39.039Z,17.60
2023-05-23T18:43:06.288Z,17.60
2023-05-23T18:45:33.350Z,17.40
2023-05-23T18:48:00.538Z,17.40
2023-05-23T18:50:27.955Z,17.50
2023-05-23T18:52:55.086Z,17.40
2023-05-23T18:55:22.409Z,17.40
2023-05-23T18:57:49.599Z,17.40
2023-05-23T19:00:17.579Z,17.20
2023-05-23T19:02:45.761Z,17.10
2023-05-23T19:05:13.203Z,17.10
2023-05-23T19:07:40.611Z,16.80
2023-05-23T19:10:08.387Z,16.90
2023-05-23T19:12:35.557Z,16.90
2023-05-23T19:15:03.239Z,16.90
2023-05-23T19:17:31.170Z,16.80
2023-05-23T19:19:58.269Z,16.70
2023-05-23T19:22:27.889Z,16.80
2023-05-23T19:24:58.545Z,16.80
2023-05-23T19:27:25.564Z,16.80
2023-05-23T19:29:52.865Z,16.70
2023-05-23T19:32:19.948Z,16.80
2023-05-23T19:34:47.698Z,16.80
2023-05-23T19:37:14.798Z,16.70
2023-05-23T19:39:45.823Z,16.80
2023-05-23T19:42:13.482Z,16.70
2023-05-23T19:44:40.770Z,16.70
2023-05-23T19:47:08.200Z,16.80
2023-05-23T19:49:35.965Z,16.70
2023-05-23T19:52:03.079Z,16.60
2023-05-23T19:54:30.340Z,16.60
2023-05-23T19:56:57.414Z,16.50
2023-05-23T19:59:24.645Z,16.50
2023-05-23T20:01:51.928Z,16.50
2023-05-23T20:04:19.106Z,16.50
2023-05-23T20:06:46.460Z,16.50
2023-05-23T20:09:13.741Z,16.50
2023-05-23T20:11:42.849Z,16.50
2023-05-23T20:14:10.425Z,16.50
2023-05-23T20:16:38.350Z,16.50
2023-05-23T20:19:06.613Z,16.40
2023-05-23T20:21:33.816Z,16.40
2023-05-23T20:24:01.114Z,16.40
2023-05-23T20:26:28.326Z,16.40
2023-05-23T20:28:55.486Z,16.30
2023-05-23T20:31:22.600Z,16.30
2023-05-23T20:33:50.012Z,16.30
2023-05-23T20:36:19.934Z,16.30
2023-05-23T20:38:48.060Z,16.20
2023-05-23T20:41:15.360Z,16.30
2023-05-23T20:43:44.646Z,16.30
2023-05-23T20:46:13.609Z,16.30
2023-05-23T20:48:41.598Z,16.20
2023-05-23T20:51:08.802Z,16.20
2023-05-23T20:53:37.142Z,16.20
2023-05-23T20:56:04.539Z,16.20
2023-05-23T20:58:31.709Z,16.20
2023-05-23T21:00:58.935Z,16.20
2023-05-23T21:03:26.500Z,16.00
2023-05-23T21:05:53.640Z,15.90
2023-05-23T21:08:21.223Z,15.90
2023-05-23T21:10:51.501Z,15.90
2023-05-23T21:13:20.862Z,15.90
2023-05-23T21:15:48.111Z,16.00
2023-05-23T21:18:15.206Z,16.00
2023-05-23T21:20:42.578Z,16.00
2023-05-23T21:23:09.970Z,16.00
2023-05-23T21:25:37.044Z,16.00
2023-05-23T21:28:04.202Z,15.90
2023-05-23T21:30:31.325Z,15.90
2023-05-23T21:32:58.591Z,16.00
2023-05-23T21:35:25.714Z,15.80
2023-05-23T21:37:53.168Z,15.60
2023-05-23T21:40:20.201Z,15.60
2023-05-23T21:42:47.312Z,15.60
2023-05-23T21:45:14.342Z,15.40
2023-05-23T21:47:41.747Z,15.40
2023-05-23T21:50:09.842Z,15.30
2023-05-23T21:52:37.021Z,15.30
2023-05-23T21:55:04.491Z,15.20
2023-05-23T21:57:31.690Z,15.20
2023-05-23T21:59:58.874Z,15.20
2023-05-23T22:02:26.551Z,15.10
2023-05-23T22:04:53.766Z,15.10
2023-05-23T22:07:25.313Z,15.10
2023-05-23T22:09:53.495Z,15.00
2023-05-23T22:12:20.585Z,15.00
2023-05-23T22:14:47.687Z,15.00
2023-05-23T22:17:14.672Z,14.90
2023-05-23T22:19:41.885Z,14.90
2023-05-23T22:22:09.824Z,14.80
2023-05-23T22:24:36.858Z,14.80
2023-05-23T22:27:04.166Z,14.80
2023-05-23T22:29:31.260Z,14.80
2023-05-23T22:31:58.308Z,14.90
2023-05-23T22:34:25.384Z,14.90
2023-05-23T22:36:52.426Z,14.90
2023-05-23T22:39:19.445Z,14.90
2023-05-23T22:41:46.697Z,14.80
2023-05-23T22:44:13.810Z,14.80
2023-05-23T22:46:43.769Z,14.70
2023-05-23T22:49:10.872Z,14.70
2023-05-23T22:51:37.882Z,14.60
2023-05-23T22:54:04.925Z,14.70
2023-05-23T22:56:32.118Z,14.70
2023-05-23T22:58:59.137Z,14.60
2023-05-23T23:01:26.358Z,14.60
2023-05-23T23:03:53.483Z,14.60
2023-05-23T23:06:21.083Z,14.60
2023-05-23T23:08:48.170Z,14.50
2023-05-23T23:11:15.551Z,14.40
2023-05-23T23:13:42.549Z,14.30
2023-05-23T23:16:09.630Z,14.30
2023-05-23T23:18:36.648Z,14.40
2023-05-23T23:21:03.848Z,14.30
2023-05-23T23:23:30.947Z,14.20
2023-05-23T23:25:59.525Z,14.20
2023-05-23T23:28:26.629Z,14.20
2023-05-23T23:30:53.677Z,14.20
2023-05-23T23:33:20.813Z,14.20
2023-05-23T23:35:49.031Z,14.20
2023-05-23T23:38:16.516Z,14.20
2023-05-23T23:40:46.717Z,14.30
2023-05-23T23:43:13.993Z,14.20
2023-05-23T23:45:41.078Z,14.20
2023-05-23T23:48:08.243Z,14.10
2023-05-23T23:50:35.389Z,14.10
2023-05-23T23:53:02.493Z,14.10
2023-05-23T23:55:29.602Z,14.00
2023-05-23T23:57:56.645Z,14.00
